Time;durP1;ratioP1;P1;durP2;ratioP2;P2;SDS_P1;SDS_P2;PMS_P1;PMS_P2;Temp;Humidity;BMP_temperature;BMP_pressure;BME280_temperature;BME280_humidity;BME280_pressure;Samples;Min_cycle;Max_cycle;Signal;HPM_P1;HPM_P2
2020/12/01 00:00:58;;;;;;;20.40;13.50;;;;;;;1.78;79.57;100911.31;5082314;28;20094;-47
2020/12/01 00:03:24;;;;;;;21.90;13.70;;;;;;;1.68;79.96;100911.50;5082258;28;20101;-47
2020/12/01 00:05:50;;;;;;;23.48;14.60;;;;;;;1.49;80.46;100911.09;5080631;28;20048;-53
2020/12/01 00:08:16;;;;;;;17.92;12.55;;;;;;;1.68;79.62;100916.56;5078454;28;20040;-51
2020/12/01 00:10:43;;;;;;;18.10;13.10;;;;;;;1.84;79.13;100912.50;5079837;28;20052;-50
2020/12/01 00:13:11;;;;;;;23.48;14.02;;;;;;;1.76;79.67;100906.97;5082246;28;20051;-51
2020/12/01 00:15:37;;;;;;;19.33;13.23;;;;;;;1.68;79.43;100920.75;5082711;28;20048;-52
2020/12/01 00:18:04;;;;;;;20.83;13.10;;;;;;;1.80;78.71;100906.34;5078681;28;20055;-47
2020/12/01 00:20:30;;;;;;;21.60;14.10;;;;;;;1.76;78.86;100909.50;5078977;28;20140;-50
2020/12/01 00:22:57;;;;;;;21.48;13.52;;;;;;;2.03;78.21;100905.28;5081437;28;20044;-48
2020/12/01 00:25:23;;;;;;;23.30;14.07;;;;;;;2.02;78.58;100901.03;5082291;28;20097;-50
2020/12/01 00:27:50;;;;;;;20.30;13.13;;;;;;;2.05;77.92;100896.19;5080614;28;20105;-46
2020/12/01 00:30:20;;;;;;;19.42;14.07;;;;;;;1.84;77.88;100899.88;5078225;28;20049;-49
2020/12/01 00:32:47;;;;;;;18.58;13.10;;;;;;;1.87;78.86;100900.06;5079991;28;20110;-49
2020/12/01 00:35:20;;;;;;;21.92;14.73;;;;;;;1.97;78.00;100897.34;5082293;28;20040;-45
2020/12/01 00:37:47;;;;;;;19.23;12.63;;;;;;;1.96;77.70;100893.94;5080792;28;20508;-49
2020/12/01 00:40:13;;;;;;;20.38;13.23;;;;;;;1.87;78.41;100890.84;5078786;28;20126;-46
2020/12/01 00:42:40;;;;;;;20.65;13.65;;;;;;;1.77;78.42;100886.00;5079496;28;20056;-48
2020/12/01 00:45:08;;;;;;;23.60;14.25;;;;;;;2.19;77.10;100885.28;5081566;28;20032;-50
2020/12/01 00:47:35;;;;;;;23.48;14.40;;;;;;;2.08;77.69;100881.22;5081878;28;20044;-49
2020/12/01 00:50:02;;;;;;;22.33;13.60;;;;;;;2.06;77.00;100877.72;5078358;28;20094;-46
2020/12/01 00:52:29;;;;;;;22.30;14.07;;;;;;;2.00;77.37;100877.34;5078312;28;20738;-45
2020/12/01 00:54:55;;;;;;;18.70;12.73;;;;;;;2.07;76.76;100871.00;5081183;28;20048;-50
2020/12/01 00:57:21;;;;;;;20.23;13.88;;;;;;;2.03;77.31;100862.38;5081813;28;20557;-49
2020/12/01 00:59:48;;;;;;;27.13;15.00;;;;;;;1.97;77.76;100867.91;5080558;28;20052;-46
2020/12/01 01:02:14;;;;;;;19.85;14.15;;;;;;;1.98;76.59;100862.06;5078772;28;20105;-47
2020/12/01 01:04:40;;;;;;;20.67;14.32;;;;;;;2.00;77.58;100862.19;5079432;28;20105;-50
2020/12/01 01:07:07;;;;;;;24.52;14.90;;;;;;;2.21;76.72;100865.16;5082354;28;20044;-50
2020/12/01 01:09:33;;;;;;;23.20;14.60;;;;;;;2.16;77.16;100861.47;5082031;28;20044;-48
2020/12/01 01:12:00;;;;;;;22.92;14.95;;;;;;;2.08;77.50;100867.69;5078401;28;20057;-45
2020/12/01 01:14:26;;;;;;;23.10;15.13;;;;;;;2.04;77.19;100867.53;5078099;28;20045;-48
2020/12/01 01:16:52;;;;;;;23.38;14.80;;;;;;;2.08;77.17;100870.22;5080286;28;20090;-47
2020/12/01 01:19:19;;;;;;;20.33;14.32;;;;;;;2.15;77.49;100853.03;5081449;28;20498;-48
2020/12/01 01:21:48;;;;;;;23.08;14.68;;;;;;;2.05;77.61;100853.25;5079856;28;20048;-50
2020/12/01 01:24:16;;;;;;;23.50;15.15;;;;;;;2.34;75.81;100856.69;5077726;28;20041;-48
2020/12/01 01:26:48;;;;;;;24.35;15.50;;;;;;;2.21;76.65;100843.28;5078371;28;20054;-48
2020/12/01 01:29:15;;;;;;;21.10;15.52;;;;;;;2.35;76.51;100850.84;5081068;28;20104;-46
2020/12/01 01:31:42;;;;;;;24.05;14.73;;;;;;;2.19;76.41;100844.88;5080683;28;20052;-51
2020/12/01 01:34:09;;;;;;;24.33;15.32;;;;;;;2.19;76.48;100839.81;5077889;28;20049;-49
2020/12/01 01:36:35;;;;;;;21.55;14.45;;;;;;;2.19;76.84;100838.94;5077705;28;20051;-48
2020/12/01 01:39:05;;;;;;;21.13;14.30;;;;;;;2.38;75.34;100836.75;5080713;28;20043;-50
2020/12/01 01:41:34;;;;;;;21.85;14.88;;;;;;;2.19;76.62;100842.34;5081251;28;20048;-52
2020/12/01 01:44:01;;;;;;;24.30;15.63;;;;;;;2.42;75.52;100833.63;5077348;28;20070;-46
2020/12/01 01:46:38;;;;;;;24.48;15.40;;;;;;;1.99;76.66;100838.59;5077453;28;20698;-47
2020/12/01 01:49:10;;;;;;;23.60;15.15;;;;;;;2.24;76.03;100840.09;5076997;28;20040;-50
2020/12/01 01:51:38;;;;;;;25.90;16.52;;;;;;;2.26;75.92;100834.34;5077322;28;20047;-50
2020/12/01 01:54:06;;;;;;;25.45;16.27;;;;;;;2.20;76.04;100835.63;5077030;28;20455;-47
2020/12/01 01:56:39;;;;;;;26.17;15.50;;;;;;;2.13;76.41;100828.47;5076615;28;20413;-45
2020/12/01 01:59:07;;;;;;;24.15;15.27;;;;;;;1.93;77.23;100827.22;5077117;28;20044;-49
2020/12/01 02:01:35;;;;;;;25.75;15.98;;;;;;;2.14;76.48;100820.13;5077207;28;20044;-48
2020/12/01 02:04:08;;;;;;;27.80;16.65;;;;;;;2.26;75.21;100821.72;5079914;28;20058;-45
2020/12/01 02:06:46;;;;;;;23.92;15.52;;;;;;;2.35;75.79;100811.28;5080741;28;20466;-45
2020/12/01 02:09:23;;;;;;;24.10;16.35;;;;;;;2.24;76.19;100815.69;5076780;28;20047;-45
2020/12/01 02:11:50;;;;;;;22.75;14.98;;;;;;;2.26;76.14;100806.56;5079031;28;20045;-46
2020/12/01 02:14:43;;;;;;;25.05;15.88;;;;;;;1.96;76.56;100803.03;5080161;28;20406;-46
2020/12/01 02:17:18;;;;;;;24.27;15.32;;;;;;;2.35;75.68;100801.19;5077054;28;20052;-48
2020/12/01 02:19:46;;;;;;;28.35;17.42;;;;;;;2.08;76.81;100800.41;5077429;28;20055;-51
2020/12/01 02:22:16;;;;;;;24.00;15.65;;;;;;;2.00;76.40;100796.53;5080363;28;20043;-47
2020/12/01 02:24:43;;;;;;;27.08;17.98;;;;;;;2.21;75.91;100795.28;5079539;28;20047;-45
2020/12/01 02:27:12;;;;;;;28.55;16.80;;;;;;;1.76;77.82;100789.19;5077115;28;20049;-48
2020/12/01 02:29:43;;;;;;;25.00;16.63;;;;;;;2.15;77.22;100805.03;5072067;28;20047;-46
2020/12/01 02:32:09;;;;;;;25.80;16.45;;;;;;;2.38;75.46;100803.03;5073190;28;20044;-51
2020/12/01 02:34:41;;;;;;;26.73;16.67;;;;;;;2.15;75.71;100805.03;5068759;28;20488;-47
2020/12/01 02:37:10;;;;;;;25.17;17.10;;;;;;;2.13;76.28;100799.03;5077325;28;20116;-48
2020/12/01 02:39:37;;;;;;;24.40;16.27;;;;;;;2.10;76.24;100805.53;5076820;28;20063;-46
2020/12/01 02:42:08;;;;;;;26.95;18.05;;;;;;;2.25;75.96;100807.34;5076486;28;20044;-49
2020/12/01 02:44:35;;;;;;;28.98;17.65;;;;;;;2.47;74.66;100803.59;5076516;28;20055;-48
2020/12/01 02:47:04;;;;;;;26.75;16.95;;;;;;;2.28;75.33;100801.63;5079633;28;20056;-50
2020/12/01 02:49:33;;;;;;;29.75;18.85;;;;;;;2.50;74.58;100809.69;5080001;28;20059;-48
2020/12/01 02:51:59;;;;;;;27.77;17.75;;;;;;;2.40;75.25;100801.47;5076691;28;20048;-48
2020/12/01 02:54:26;;;;;;;25.05;17.15;;;;;;;2.42;75.94;100802.44;5076222;28;20466;-49
2020/12/01 02:56:52;;;;;;;29.27;18.40;;;;;;;2.28;75.57;100802.47;5078368;28;20040;-45
2020/12/01 02:59:19;;;;;;;30.35;19.02;;;;;;;2.34;75.84;100796.91;5079784;28;20054;-45
2020/12/01 03:01:46;;;;;;;29.15;18.77;;;;;;;2.35;75.66;100785.16;5078580;28;20500;-46
2020/12/01 03:04:13;;;;;;;30.85;18.67;;;;;;;2.19;77.22;100790.94;5076416;28;20045;-49
2020/12/01 03:06:40;;;;;;;34.10;19.95;;;;;;;2.10;78.00;100791.25;5077706;28;20055;-49
2020/12/01 03:09:14;;;;;;;32.20;20.70;;;;;;;2.21;77.96;100791.91;5084109;28;20047;-48
2020/12/01 03:11:41;;;;;;;31.70;20.42;;;;;;;2.26;77.85;100795.56;5083615;28;20059;-45
2020/12/01 03:14:09;;;;;;;36.38;20.77;;;;;;;2.25;78.41;100802.28;5080499;28;20041;-46
2020/12/01 03:16:35;;;;;;;32.35;20.85;;;;;;;1.98;79.45;100801.47;5080456;28;20048;-47
2020/12/01 03:19:03;;;;;;;32.72;19.67;;;;;;;2.38;77.94;100800.50;5083370;28;20044;-46
2020/12/01 03:21:29;;;;;;;34.25;21.10;;;;;;;2.11;79.51;100802.22;5083964;28;20043;-47
2020/12/01 03:23:56;;;;;;;34.90;20.65;;;;;;;2.09;79.77;100799.63;5080912;28;20068;-49
2020/12/01 03:26:23;;;;;;;35.00;22.35;;;;;;;2.04;78.88;100795.94;5080249;28;20058;-44
2020/12/01 03:28:49;;;;;;;34.22;20.42;;;;;;;2.29;78.31;100796.63;5081475;28;20080;-45
2020/12/01 03:31:19;;;;;;;34.10;21.33;;;;;;;2.07;78.86;100793.59;5082781;28;20044;-45
2020/12/01 03:33:47;;;;;;;32.05;20.65;;;;;;;2.17;79.32;100789.97;5081516;28;20055;-45
2020/12/01 03:36:15;;;;;;;33.83;22.33;;;;;;;2.03;79.35;100789.13;5085364;28;20048;-45
2020/12/01 03:38:42;;;;;;;37.97;22.80;;;;;;;2.00;80.47;100787.31;5082769;28;20866;-45
2020/12/01 03:41:09;;;;;;;38.22;23.33;;;;;;;2.12;79.57;100792.22;5080604;28;20048;-53
2020/12/01 03:43:36;;;;;;;35.78;22.63;;;;;;;2.18;78.96;100794.25;5079763;28;20044;-47
2020/12/01 03:46:03;;;;;;;37.33;22.20;;;;;;;1.96;80.88;100787.88;5083105;28;20044;-48
2020/12/01 03:48:30;;;;;;;38.20;23.25;;;;;;;2.04;80.18;100785.84;5082866;28;20044;-50
2020/12/01 03:50:57;;;;;;;35.08;22.30;;;;;;;2.27;78.62;100785.59;5080429;28;20048;-48
2020/12/01 03:53:23;;;;;;;36.75;22.52;;;;;;;2.20;79.87;100785.09;5079219;28;20051;-48
2020/12/01 03:55:50;;;;;;;35.85;22.63;;;;;;;2.25;78.23;100784.59;5081349;28;20055;-49
2020/12/01 03:58:18;;;;;;;37.88;22.35;;;;;;;2.25;80.16;100787.13;5082344;28;20048;-51
2020/12/01 04:00:45;;;;;;;39.38;22.98;;;;;;;2.11;79.84;100779.50;5081587;28;20052;-48
2020/12/01 04:03:12;;;;;;;34.85;21.88;;;;;;;2.38;78.29;100780.28;5079536;28;20051;-46
2020/12/01 04:05:38;;;;;;;37.40;22.77;;;;;;;2.49;78.64;100779.25;5080051;28;20055;-47
2020/12/01 04:08:08;;;;;;;36.08;22.33;;;;;;;2.40;78.48;100776.19;5083047;28;20385;-49
2020/12/01 04:10:36;;;;;;;35.53;21.52;;;;;;;2.42;78.46;100780.56;5082952;28;20046;-50
2020/12/01 04:13:03;;;;;;;39.30;24.05;;;;;;;2.33;78.24;100774.97;5079376;28;20485;-48
2020/12/01 04:15:30;;;;;;;39.17;23.58;;;;;;;2.40;78.66;100784.63;5078771;28;20045;-49
2020/12/01 04:17:56;;;;;;;40.60;24.35;;;;;;;2.51;78.10;100780.25;5081404;28;20055;-46
2020/12/01 04:20:23;;;;;;;36.78;23.33;;;;;;;2.41;78.41;100775.44;5081849;28;20063;-46
2020/12/01 04:22:49;;;;;;;37.72;23.65;;;;;;;2.39;79.19;100784.56;5080596;28;20112;-49
2020/12/01 04:25:20;;;;;;;43.97;24.98;;;;;;;2.30;79.16;100779.81;5078508;28;20054;-47
2020/12/01 04:27:48;;;;;;;42.13;24.17;;;;;;;2.16;79.48;100786.56;5079958;28;20706;-47
2020/12/01 04:30:16;;;;;;;40.70;24.52;;;;;;;2.22;79.96;100786.97;5082081;28;20043;-50
2020/12/01 04:32:42;;;;;;;39.45;23.77;;;;;;;2.17;79.51;100785.81;5081564;28;20424;-46
2020/12/01 04:35:11;;;;;;;39.55;24.02;;;;;;;2.16;79.68;100785.69;5083513;28;20048;-46
2020/12/01 04:37:37;;;;;;;40.50;24.20;;;;;;;2.06;80.54;100776.69;5082282;28;20050;-46
2020/12/01 04:40:07;;;;;;;36.15;22.60;;;;;;;2.25;80.03;100786.25;5078647;28;20050;-46
2020/12/01 04:42:43;;;;;;;38.88;23.02;;;;;;;2.20;79.97;100793.56;5078427;28;20047;-50
2020/12/01 04:45:11;;;;;;;;;;;;;;;2.46;78.74;100797.66;5079160;28;20393;-52
2020/12/01 04:48:01;;;;;;;36.50;22.13;;;;;;;2.35;79.06;100801.19;5078533;28;19927;-47
2020/12/01 04:50:37;;;;;;;38.17;23.13;;;;;;;2.31;79.51;100801.78;5081693;28;20051;-53
2020/12/01 04:53:09;;;;;;;43.75;24.77;;;;;;;2.36;79.65;100797.91;5077881;28;20052;-54
2020/12/01 04:56:03;;;;;;;41.50;24.52;;;;;;;2.44;79.68;100794.16;5069816;28;20500;-50
2020/12/01 04:58:44;;;;;;;45.00;25.13;;;;;;;2.05;81.86;100787.59;5077717;28;20036;-52
2020/12/01 05:01:28;;;;;;;43.67;25.35;;;;;;;2.04;82.18;100785.84;5074453;28;20032;-49
2020/12/01 05:04:29;;;;;;;46.25;26.25;;;;;;;2.08;82.26;100782.72;5080264;28;20688;-49
2020/12/01 05:07:10;;;;;;;43.30;25.30;;;;;;;2.19;82.17;100785.91;5070566;28;20546;-50
2020/12/01 05:09:43;;;;;;;45.45;27.35;;;;;;;2.23;82.41;100786.19;5077795;28;20054;-47
2020/12/01 05:12:29;;;;;;;46.03;28.00;;;;;;;2.15;82.62;100781.44;5077878;28;20040;-49
2020/12/01 05:15:14;;;;;;;47.03;26.83;;;;;;;2.30;82.45;100787.41;5075976;28;20127;-46
2020/12/01 05:18:07;;;;;;;53.35;29.70;;;;;;;1.91;85.20;100783.34;5080603;28;20044;-52
2020/12/01 05:20:46;;;;;;;49.63;28.75;;;;;;;1.97;85.30;100792.16;5077580;28;20040;-48
2020/12/01 05:23:15;;;;;;;50.90;28.88;;;;;;;2.09;85.62;100797.09;5070387;28;20036;-48
2020/12/01 05:25:42;;;;;;;52.58;30.83;;;;;;;1.87;86.45;100789.84;5078117;28;20052;-47
2020/12/01 05:28:17;;;;;;;51.38;28.92;;;;;;;1.82;86.75;100798.78;5081202;28;20476;-47
2020/12/01 05:30:44;;;;;;;52.55;28.88;;;;;;;1.92;86.44;100792.66;5079019;28;20044;-46
2020/12/01 05:33:16;;;;;;;51.38;29.42;;;;;;;2.09;86.13;100806.34;5077700;28;20055;-49
2020/12/01 05:35:44;;;;;;;52.33;29.20;;;;;;;1.98;86.74;100805.66;5077859;28;20463;-50
2020/12/01 05:38:13;;;;;;;54.35;29.30;;;;;;;1.71;87.64;100805.69;5081154;28;20048;-45
2020/12/01 05:40:51;;;;;;;52.97;29.52;;;;;;;1.73;88.31;100809.19;5077150;28;20075;-45
2020/12/01 05:43:36;;;;;;;53.08;30.30;;;;;;;1.75;87.73;100804.22;5077287;28;20412;-45
2020/12/01 05:46:12;;;;;;;51.22;29.23;;;;;;;1.95;86.65;100808.00;5072855;28;20048;-48
2020/12/01 05:49:00;;;;;;;50.38;28.80;;;;;;;1.88;87.51;100806.75;5076565;28;20566;-48
2020/12/01 05:51:38;;;;;;;49.03;27.05;;;;;;;1.98;86.24;100806.53;5075163;28;20042;-47
2020/12/01 05:54:13;;;;;;;49.13;27.83;;;;;;;1.98;86.81;100805.66;5077041;28;20044;-49
2020/12/01 05:56:47;;;;;;;49.00;28.50;;;;;;;1.94;86.63;100809.66;5077254;28;20044;-48
2020/12/01 05:59:17;;;;;;;47.95;28.42;;;;;;;2.05;86.82;100820.41;5080233;28;20039;-46
2020/12/01 06:01:46;;;;;;;50.40;28.60;;;;;;;1.85;87.17;100821.72;5079516;28;20052;-48
2020/12/01 06:04:17;;;;;;;51.67;29.60;;;;;;;1.82;87.20;100824.03;5077765;28;20046;-48
2020/12/01 06:07:12;;;;;;;50.08;28.33;;;;;;;1.78;87.42;100829.66;5080769;28;20121;-45
2020/12/01 06:10:15;;;;;;;46.65;26.75;;;;;;;1.91;86.95;100838.88;5080688;28;20064;-46
2020/12/01 06:12:54;;;;;;;50.40;28.00;;;;;;;1.98;85.85;100838.47;5079059;28;20055;-46
2020/12/01 06:15:21;;;;;;;43.28;26.60;;;;;;;2.12;85.94;100845.25;5085460;28;20051;-48
2020/12/01 06:18:16;;;;;;;48.05;28.02;;;;;;;1.99;86.14;100845.31;5079557;28;20052;-44
2020/12/01 06:20:55;;;;;;;48.53;27.83;;;;;;;2.06;85.04;100836.44;5080425;28;20040;-49
2020/12/01 06:23:57;;;;;;;45.72;26.60;;;;;;;2.10;84.74;100835.84;5080163;28;20044;-47
2020/12/01 06:26:45;;;;;;;46.63;24.90;;;;;;;2.30;84.33;100835.41;5079892;28;20119;-42
2020/12/01 06:29:33;;;;;;;44.42;26.05;;;;;;;2.29;83.63;100837.06;5083028;28;20075;-42
2020/12/01 06:32:05;;;;;;;43.60;26.25;;;;;;;2.36;84.17;100838.34;5079771;28;20492;-43
2020/12/01 06:35:10;;;;;;;48.55;26.60;;;;;;;2.48;83.28;100831.47;5072507;28;20049;-42
2020/12/01 06:38:21;;;;;;;45.33;26.23;;;;;;;2.37;84.43;100827.44;5077489;28;20078;-42
2020/12/01 06:40:56;;;;;;;46.53;27.23;;;;;;;2.27;83.99;100837.78;5003660;28;20050;-42
2020/12/01 06:43:36;;;;;;;50.15;26.67;;;;;;;2.35;83.15;100840.75;5004681;28;20042;-42
2020/12/01 06:46:30;;;;;;;46.65;25.55;;;;;;;1.89;85.20;100838.78;5051742;28;20044;-42
2020/12/01 06:49:01;;;;;;;47.22;26.60;;;;;;;2.18;84.74;100835.56;5078647;28;20070;-42
2020/12/01 06:51:27;;;;;;;45.35;25.48;;;;;;;2.49;83.53;100845.84;5079504;28;20051;-42
2020/12/01 06:55:53;;;;;;;45.22;25.02;;;;;;;2.51;83.54;100843.44;5062048;27;20356;-42
2020/12/01 06:58:25;;;;;;;46.20;25.98;;;;;;;2.61;83.40;100844.84;5057702;28;20045;-42
2020/12/01 07:01:10;;;;;;;47.67;25.73;;;;;;;2.71;81.94;100847.13;5062604;28;20075;-43
2020/12/01 07:03:38;;;;;;;43.78;25.40;;;;;;;2.49;82.66;100847.50;5057647;28;20128;-42
2020/12/01 07:06:36;;;;;;;44.95;23.90;;;;;;;2.48;83.76;100845.75;5049769;28;20045;-43
2020/12/01 07:09:10;;;;;;;45.00;25.27;;;;;;;2.24;84.65;100848.53;5046598;28;20045;-43
2020/12/01 07:12:04;;;;;;;44.28;24.23;;;;;;;2.53;84.12;100846.91;5047929;28;20052;-44
2020/12/01 07:14:50;;;;;;;43.63;24.40;;;;;;;2.41;83.82;100852.13;5067007;28;20053;-43
2020/12/01 07:17:20;;;;;;;45.38;24.85;;;;;;;2.73;83.25;100859.09;5047008;28;20042;-43
2020/12/01 07:20:10;;;;;;;42.15;24.00;;;;;;;2.31;83.97;100859.88;5051562;28;20045;-42
2020/12/01 07:22:39;;;;;;;39.70;22.50;;;;;;;2.58;83.24;100859.81;5059355;28;20623;-44
2020/12/01 07:25:21;;;;;;;43.42;23.80;;;;;;;2.44;83.69;100859.84;5041096;28;20477;-43
2020/12/01 07:28:04;;;;;;;42.33;23.67;;;;;;;2.52;84.33;100855.28;5076109;28;20051;-43
2020/12/01 07:30:47;;;;;;;41.38;23.70;;;;;;;2.61;84.16;100865.06;5077650;28;20055;-46
2020/12/01 07:33:19;;;;;;;37.97;20.90;;;;;;;2.75;82.87;100871.81;5075491;28;20043;-42
2020/12/01 07:36:15;;;;;;;34.72;20.70;;;;;;;2.36;84.24;100863.59;5080711;28;20385;-43
2020/12/01 07:39:09;;;;;;;41.33;22.45;;;;;;;2.57;83.44;100866.53;5076122;28;20248;-45
2020/12/01 07:41:47;;;;;;;36.65;22.98;;;;;;;2.07;85.88;100871.00;5073727;28;20408;-47
2020/12/01 07:44:17;;;;;;;36.13;20.90;;;;;;;2.44;84.14;100874.16;5078951;28;20127;-48
2020/12/01 07:49:18;;;;;;;35.90;19.80;;;;;;;2.66;83.38;100877.19;5079236;28;20131;-42
2020/12/01 07:51:47;;;;;;;32.85;19.77;;;;;;;2.61;82.85;100877.72;5074697;28;20052;-44
2020/12/01 07:54:23;;;;;;;33.15;19.75;;;;;;;2.94;81.17;100881.38;5076658;28;20043;-47
2020/12/01 07:56:50;;;;;;;34.67;19.70;;;;;;;2.64;82.34;100888.03;5079420;28;20048;-44
2020/12/01 07:59:17;;;;;;;31.80;18.52;;;;;;;3.01;80.85;100898.69;5078065;28;20127;-45
2020/12/01 08:01:44;;;;;;;29.17;18.38;;;;;;;2.70;81.37;100906.06;5072254;28;20121;-43
2020/12/01 08:04:22;;;;;;;29.70;17.85;;;;;;;2.88;81.05;100904.66;5075337;28;20048;-48
2020/12/01 08:07:03;;;;;;;32.55;18.92;;;;;;;2.69;81.55;100909.41;5060190;28;20051;-43
2020/12/01 08:09:31;;;;;;;32.90;18.45;;;;;;;2.90;80.67;100905.59;5060609;28;20060;-42
2020/12/01 08:12:06;;;;;;;29.65;18.95;;;;;;;2.80;80.57;100900.78;5062500;28;20592;-46
2020/12/01 08:14:33;;;;;;;;;;;;;;;2.49;82.05;100909.03;5067041;28;20064;-42
2020/12/01 08:17:14;;;;;;;31.35;18.13;;;;;;;2.77;81.05;100905.66;5060918;28;19931;-43
2020/12/01 08:19:41;;;;;;;32.15;19.10;;;;;;;3.02;79.79;100908.00;5063887;28;20044;-43
2020/12/01 08:22:09;;;;;;;27.77;17.80;;;;;;;3.06;80.27;100902.34;5068941;28;20041;-44
2020/12/01 08:24:42;;;;;;;33.47;19.33;;;;;;;3.05;79.46;100904.00;5058570;28;20052;-47
2020/12/01 08:27:20;;;;;;;30.58;18.75;;;;;;;2.63;81.16;100903.94;5050790;28;20068;-42
2020/12/01 08:29:54;;;;;;;29.98;18.33;;;;;;;2.92;80.01;100903.19;5066376;28;20119;-45
2020/12/01 08:32:34;;;;;;;30.67;18.73;;;;;;;3.03;78.64;100909.75;5060737;28;20068;-44
2020/12/01 08:35:09;;;;;;;28.40;17.98;;;;;;;2.91;79.26;100899.78;5061188;28;20131;-46
2020/12/01 08:38:13;;;;;;;31.77;19.90;;;;;;;3.00;80.81;100910.44;5059900;28;20041;-47
2020/12/01 08:40:55;;;;;;;30.95;19.20;;;;;;;3.17;79.49;100920.69;5026104;28;20041;-44
2020/12/01 08:43:49;;;;;;;29.65;18.85;;;;;;;3.15;79.47;100920.59;5059132;28;20049;-42
2020/12/01 08:46:22;;;;;;;30.30;19.25;;;;;;;3.52;77.94;100928.69;5058152;28;20044;-42
2020/12/01 08:48:53;;;;;;;30.20;17.90;;;;;;;3.38;77.63;100927.00;5062072;28;20145;-42
2020/12/01 08:51:33;;;;;;;31.40;19.40;;;;;;;3.57;76.88;100932.34;5065600;28;20044;-43
2020/12/01 08:54:12;;;;;;;28.88;18.25;;;;;;;3.77;77.11;100930.94;5060665;28;20442;-44
2020/12/01 08:56:48;;;;;;;30.55;19.13;;;;;;;3.62;76.98;100937.66;5063370;28;20040;-44
2020/12/01 08:59:27;;;;;;;28.80;19.35;;;;;;;3.50;76.82;100940.34;5054667;28;20048;-43
2020/12/01 09:02:01;;;;;;;33.13;18.77;;;;;;;3.57;77.34;100939.06;5060512;28;20060;-44
2020/12/01 09:04:31;;;;;;;33.28;20.08;;;;;;;3.42;76.85;100938.16;5060452;28;20059;-44
2020/12/01 09:07:14;;;;;;;31.70;19.80;;;;;;;3.76;76.89;100946.94;5059690;28;20500;-44
2020/12/01 09:09:42;;;;;;;30.30;18.83;;;;;;;3.81;76.15;100943.00;5062827;28;20115;-45
2020/12/01 09:12:19;;;;;;;28.92;18.77;;;;;;;3.81;75.31;100947.19;5061903;28;20396;-47
2020/12/01 09:17:41;;;;;;;31.38;19.23;;;;;;;3.42;76.75;100951.72;5055826;28;20045;-42
2020/12/01 09:20:27;;;;;;;32.13;19.55;;;;;;;3.65;76.69;100952.16;5064910;28;20051;-42
2020/12/01 09:23:05;;;;;;;32.10;19.25;;;;;;;3.59;76.57;100957.75;5043370;28;20044;-41
2020/12/01 09:25:36;;;;;;;34.85;20.95;;;;;;;3.63;76.77;100952.06;5056814;28;20051;-43
2020/12/01 09:28:12;;;;;;;31.55;19.63;;;;;;;3.75;75.90;100949.38;5060234;28;20159;-43
2020/12/01 09:30:40;;;;;;;32.63;20.17;;;;;;;3.67;75.50;100959.06;5060981;28;20045;-45
2020/12/01 09:33:09;;;;;;;32.03;19.50;;;;;;;3.77;76.14;100955.41;5065486;28;20134;-45
2020/12/01 09:35:36;;;;;;;31.80;20.52;;;;;;;3.67;76.30;100959.06;5060602;28;20045;-41
2020/12/01 09:38:04;;;;;;;31.42;19.63;;;;;;;3.42;76.94;100961.84;5062471;28;20048;-50
2020/12/01 09:40:33;;;;;;;34.40;20.35;;;;;;;3.52;77.35;100964.13;5059832;28;20091;-43
2020/12/01 09:43:10;;;;;;;36.15;21.08;;;;;;;3.83;76.47;100960.78;5057256;28;20066;-44
2020/12/01 09:45:55;;;;;;;34.67;20.50;;;;;;;3.63;77.13;100962.19;5063577;28;20066;-44
2020/12/01 09:50:54;;;;;;;35.50;20.00;;;;;;;3.78;76.37;100965.59;5060688;28;20833;-45
2020/12/01 09:55:58;;;;;;;29.42;20.13;;;;;;;4.01;76.43;100979.56;5060873;28;20052;-42
2020/12/01 09:58:53;;;;;;;29.70;19.10;;;;;;;3.78;76.97;100985.88;5058008;28;20323;-43
2020/12/01 10:25:55;;;;;;;31.40;19.92;;;;;;;4.14;74.46;100996.34;5061084;28;20557;-45
2020/12/01 10:36:25;;;;;;;31.85;20.23;;;;;;;3.75;75.53;100990.78;5010796;28;20099;-42
2020/12/01 10:39:13;;;;;;;30.30;19.80;;;;;;;3.97;74.96;100990.31;5040432;28;20056;-43
2020/12/01 10:41:51;;;;;;;32.28;19.02;;;;;;;4.20;73.81;100994.16;5057155;28;20222;-42
2020/12/01 10:44:19;;;;;;;32.80;19.30;;;;;;;4.04;74.92;100987.34;5057396;28;20048;-46
2020/12/01 10:46:48;;;;;;;32.70;18.65;;;;;;;4.22;73.87;100995.13;5056729;28;20045;-45
2020/12/01 10:49:16;;;;;;;30.73;20.13;;;;;;;4.36;73.98;100989.97;5057586;28;20393;-44
2020/12/01 10:51:46;;;;;;;33.42;19.92;;;;;;;4.30;73.65;101000.63;5055770;28;20122;-44
2020/12/01 10:54:12;;;;;;;29.55;19.30;;;;;;;3.93;74.67;101007.78;5058618;28;20041;-44
2020/12/01 10:56:39;;;;;;;33.35;20.83;;;;;;;3.89;76.27;101008.44;5056369;28;20045;-47
2020/12/01 10:59:05;;;;;;;30.45;19.23;;;;;;;4.59;73.29;101004.78;5060021;28;20074;-42
2020/12/01 11:01:34;;;;;;;30.08;19.00;;;;;;;4.36;72.93;100995.91;5055208;28;20091;-42
2020/12/01 11:04:01;;;;;;;32.38;18.88;;;;;;;4.66;72.87;101000.88;5058048;28;20114;-43
2020/12/01 11:06:27;;;;;;;30.23;19.55;;;;;;;4.59;73.16;101005.63;5055577;28;20130;-44
2020/12/01 11:08:54;;;;;;;27.60;19.20;;;;;;;5.11;72.78;101005.88;5057504;28;20052;-45
2020/12/01 11:11:20;;;;;;;28.65;18.50;;;;;;;5.12;71.77;101006.75;5055613;28;20509;-43
2020/12/01 11:13:46;;;;;;;30.08;19.55;;;;;;;5.26;71.42;101005.81;5055296;28;20040;-43
2020/12/01 11:16:13;;;;;;;27.02;17.95;;;;;;;5.82;69.87;101006.94;5056281;28;20091;-43
2020/12/01 11:18:40;;;;;;;28.65;17.75;;;;;;;5.63;68.69;101007.69;5059853;28;20149;-43
2020/12/01 11:21:07;;;;;;;27.48;17.95;;;;;;;5.97;68.04;101009.44;5053432;28;20045;-42
2020/12/01 11:23:33;;;;;;;27.98;18.02;;;;;;;5.82;67.63;101004.41;5055252;28;20056;-45
2020/12/01 11:26:00;;;;;;;28.42;18.25;;;;;;;5.19;70.81;101003.75;5057674;28;20060;-46
2020/12/01 11:28:26;;;;;;;28.20;18.30;;;;;;;5.19;70.84;101000.34;5052481;28;20045;-44
2020/12/01 11:30:54;;;;;;;30.27;17.65;;;;;;;5.70;68.73;100999.59;5049510;28;20079;-43
2020/12/01 11:33:25;;;;;;;26.27;17.17;;;;;;;5.71;68.16;101005.53;5049803;28;20057;-47
2020/12/01 11:35:51;;;;;;;28.83;17.42;;;;;;;5.68;68.53;101007.91;5057083;28;20093;-42
2020/12/01 11:38:17;;;;;;;26.42;17.98;;;;;;;5.41;70.12;101012.47;5052823;28;20061;-45
2020/12/01 11:40:44;;;;;;;27.67;17.77;;;;;;;5.89;67.77;101014.09;5058934;28;20102;-42
2020/12/01 11:43:11;;;;;;;25.60;17.38;;;;;;;5.77;67.95;101008.38;5060449;28;20045;-43
2020/12/01 11:45:38;;;;;;;26.13;16.92;;;;;;;5.24;69.60;101014.16;5057080;28;20044;-44
2020/12/01 11:48:04;;;;;;;28.00;16.88;;;;;;;5.54;69.18;101018.25;5057328;28;20048;-42
2020/12/01 11:50:31;;;;;;;29.35;18.25;;;;;;;5.03;70.76;101034.19;5057974;28;20195;-44
2020/12/01 11:52:58;;;;;;;28.17;18.13;;;;;;;5.34;69.81;101024.84;5059399;28;20051;-43
2020/12/01 11:55:24;;;;;;;28.48;17.95;;;;;;;4.94;71.46;101026.94;5060669;28;20451;-46
2020/12/01 11:57:51;;;;;;;27.65;17.88;;;;;;;4.96;71.77;101025.38;5046450;28;20049;-43
2020/12/01 12:00:22;;;;;;;25.17;17.40;;;;;;;4.34;74.45;101026.25;5042489;28;20057;-42
2020/12/01 12:02:48;;;;;;;26.88;17.23;;;;;;;5.00;71.86;101024.75;5044967;28;20053;-44
2020/12/01 12:05:14;;;;;;;28.98;17.85;;;;;;;4.51;73.60;101029.69;5053315;28;20053;-43
2020/12/01 12:07:41;;;;;;;28.25;18.15;;;;;;;5.07;71.99;101028.47;5061703;28;20086;-42
2020/12/01 12:10:08;;;;;;;25.60;17.13;;;;;;;5.09;70.86;101025.25;5057318;28;20056;-45
2020/12/01 12:12:35;;;;;;;28.30;18.42;;;;;;;4.59;71.49;101023.38;5055788;28;20044;-42
2020/12/01 12:15:04;;;;;;;26.80;17.00;;;;;;;4.95;70.65;101022.78;5062540;28;20079;-47
2020/12/01 12:17:30;;;;;;;26.33;18.63;;;;;;;4.69;72.16;101029.84;5063548;28;20110;-41
2020/12/01 12:19:57;;;;;;;26.35;17.10;;;;;;;5.13;71.82;101022.84;5056655;28;20045;-44
2020/12/01 12:22:23;;;;;;;26.80;18.13;;;;;;;4.74;71.04;101028.41;5055885;28;20052;-44
2020/12/01 12:24:49;;;;;;;25.55;16.90;;;;;;;4.79;72.10;101028.66;5058074;28;20053;-43